sensor_id;sensor_type;location;lat;lon;timestamp;P1;durP1;ratioP1;P2;durP2;ratioP2
39256;SDS011;24958;48.066;11.038;2022-07-12T00:00:58;2.42;;;2.22;;
39256;SDS011;24958;48.066;11.038;2022-07-12T00:03:24;2.55;;;2.35;;
39256;SDS011;24958;48.066;11.038;2022-07-12T00:05:50;2.67;;;2.25;;
39256;SDS011;24958;48.066;11.038;2022-07-12T00:08:17;2.55;;;2.35;;
39256;SDS011;24958;48.066;11.038;2022-07-12T00:10:42;2.53;;;2.33;;
39256;SDS011;24958;48.066;11.038;2022-07-12T00:13:08;2.72;;;2.53;;
39256;SDS011;24958;48.066;11.038;2022-07-12T00:15:35;2.60;;;2.40;;
39256;SDS011;24958;48.066;11.038;2022-07-12T00:18:01;3.13;;;2.83;;
39256;SDS011;24958;48.066;11.038;2022-07-12T00:20:27;2.80;;;2.60;;
39256;SDS011;24958;48.066;11.038;2022-07-12T00:22:54;2.55;;;2.35;;
39256;SDS011;24958;48.066;11.038;2022-07-12T00:25:20;2.55;;;2.35;;
39256;SDS011;24958;48.066;11.038;2022-07-12T00:27:46;3.45;;;2.72;;
39256;SDS011;24958;48.066;11.038;2022-07-12T00:30:12;2.70;;;2.40;;
39256;SDS011;24958;48.066;11.038;2022-07-12T00:32:38;2.72;;;2.53;;
39256;SDS011;24958;48.066;11.038;2022-07-12T00:35:05;2.45;;;2.25;;
39256;SDS011;24958;48.066;11.038;2022-07-12T00:37:32;2.72;;;2.53;;
39256;SDS011;24958;48.066;11.038;2022-07-12T00:39:58;2.50;;;2.30;;
39256;SDS011;24958;48.066;11.038;2022-07-12T00:42:24;2.72;;;2.53;;
39256;SDS011;24958;48.066;11.038;2022-07-12T00:44:50;2.35;;;2.15;;
39256;SDS011;24958;48.066;11.038;2022-07-12T00:47:23;2.50;;;2.30;;
39256;SDS011;24958;48.066;11.038;2022-07-12T00:49:51;2.42;;;2.22;;
39256;SDS011;24958;48.066;11.038;2022-07-12T00:52:17;2.78;;;2.20;;
39256;SDS011;24958;48.066;11.038;2022-07-12T00:54:44;2.53;;;2.28;;
39256;SDS011;24958;48.066;11.038;2022-07-12T00:57:10;2.92;;;2.67;;
39256;SDS011;24958;48.066;11.038;2022-07-12T00:59:36;3.85;;;3.00;;
39256;SDS011;24958;48.066;11.038;2022-07-12T01:02:02;2.60;;;2.40;;
39256;SDS011;24958;48.066;11.038;2022-07-12T01:04:28;2.80;;;2.60;;
39256;SDS011;24958;48.066;11.038;2022-07-12T01:06:54;2.50;;;2.30;;
39256;SDS011;24958;48.066;11.038;2022-07-12T01:09:20;4.07;;;2.58;;
39256;SDS011;24958;48.066;11.038;2022-07-12T01:11:46;2.67;;;2.47;;
39256;SDS011;24958;48.066;11.038;2022-07-12T01:14:12;2.70;;;2.42;;
39256;SDS011;24958;48.066;11.038;2022-07-12T01:16:38;2.67;;;2.47;;
39256;SDS011;24958;48.066;11.038;2022-07-12T01:19:05;3.05;;;2.50;;
39256;SDS011;24958;48.066;11.038;2022-07-12T01:21:33;2.92;;;2.72;;
39256;SDS011;24958;48.066;11.038;2022-07-12T01:24:00;3.08;;;2.72;;
39256;SDS011;24958;48.066;11.038;2022-07-12T01:26:26;3.15;;;2.78;;
39256;SDS011;24958;48.066;11.038;2022-07-12T01:28:52;3.30;;;3.10;;
39256;SDS011;24958;48.066;11.038;2022-07-12T01:31:19;3.40;;;3.00;;
39256;SDS011;24958;48.066;11.038;2022-07-12T01:33:45;3.35;;;2.55;;
39256;SDS011;24958;48.066;11.038;2022-07-12T01:36:11;2.92;;;2.72;;
39256;SDS011;24958;48.066;11.038;2022-07-12T01:38:37;2.80;;;2.60;;
39256;SDS011;24958;48.066;11.038;2022-07-12T01:41:03;2.90;;;2.70;;
39256;SDS011;24958;48.066;11.038;2022-07-12T01:43:29;5.13;;;2.80;;
39256;SDS011;24958;48.066;11.038;2022-07-12T01:45:55;2.83;;;2.58;;
39256;SDS011;24958;48.066;11.038;2022-07-12T01:48:21;2.85;;;2.65;;
39256;SDS011;24958;48.066;11.038;2022-07-12T01:50:47;2.60;;;2.40;;
39256;SDS011;24958;48.066;11.038;2022-07-12T01:53:13;2.55;;;2.35;;
39256;SDS011;24958;48.066;11.038;2022-07-12T01:55:39;2.65;;;2.45;;
39256;SDS011;24958;48.066;11.038;2022-07-12T01:58:06;2.72;;;2.53;;
39256;SDS011;24958;48.066;11.038;2022-07-12T02:00:32;2.80;;;2.60;;
39256;SDS011;24958;48.066;11.038;2022-07-12T02:02:58;3.10;;;2.80;;
39256;SDS011;24958;48.066;11.038;2022-07-12T02:05:24;4.53;;;2.92;;
39256;SDS011;24958;48.066;11.038;2022-07-12T02:07:50;3.22;;;3.03;;
39256;SDS011;24958;48.066;11.038;2022-07-12T02:10:17;3.00;;;2.80;;
39256;SDS011;24958;48.066;11.038;2022-07-12T02:12:43;2.90;;;2.70;;
39256;SDS011;24958;48.066;11.038;2022-07-12T02:15:09;3.08;;;2.85;;
39256;SDS011;24958;48.066;11.038;2022-07-12T02:17:35;3.10;;;2.90;;
39256;SDS011;24958;48.066;11.038;2022-07-12T02:20:02;3.30;;;3.00;;
39256;SDS011;24958;48.066;11.038;2022-07-12T02:22:28;3.20;;;2.90;;
39256;SDS011;24958;48.066;11.038;2022-07-12T02:24:54;3.00;;;2.70;;
39256;SDS011;24958;48.066;11.038;2022-07-12T02:27:20;3.03;;;2.83;;
39256;SDS011;24958;48.066;11.038;2022-07-12T02:29:46;3.13;;;2.93;;
39256;SDS011;24958;48.066;11.038;2022-07-12T02:32:12;3.10;;;2.90;;
39256;SDS011;24958;48.066;11.038;2022-07-12T02:34:39;3.07;;;2.87;;
39256;SDS011;24958;48.066;11.038;2022-07-12T02:37:05;3.63;;;2.77;;
39256;SDS011;24958;48.066;11.038;2022-07-12T02:39:31;2.83;;;2.53;;
39256;SDS011;24958;48.066;11.038;2022-07-12T02:41:57;2.77;;;2.57;;
39256;SDS011;24958;48.066;11.038;2022-07-12T02:44:23;2.60;;;2.40;;
39256;SDS011;24958;48.066;11.038;2022-07-12T02:46:49;3.47;;;2.50;;
39256;SDS011;24958;48.066;11.038;2022-07-12T02:49:15;2.73;;;2.53;;
39256;SDS011;24958;48.066;11.038;2022-07-12T02:51:41;3.00;;;2.80;;
39256;SDS011;24958;48.066;11.038;2022-07-12T02:54:07;3.00;;;2.60;;
39256;SDS011;24958;48.066;11.038;2022-07-12T02:56:33;2.93;;;2.63;;
39256;SDS011;24958;48.066;11.038;2022-07-12T02:58:59;3.10;;;2.90;;
39256;SDS011;24958;48.066;11.038;2022-07-12T03:01:25;3.10;;;2.90;;
39256;SDS011;24958;48.066;11.038;2022-07-12T03:03:51;2.70;;;2.50;;
39256;SDS011;24958;48.066;11.038;2022-07-12T03:06:17;2.97;;;2.75;;
39256;SDS011;24958;48.066;11.038;2022-07-12T03:08:43;2.80;;;2.60;;
39256;SDS011;24958;48.066;11.038;2022-07-12T03:11:09;2.93;;;2.73;;
39256;SDS011;24958;48.066;11.038;2022-07-12T03:13:35;3.30;;;3.00;;
39256;SDS011;24958;48.066;11.038;2022-07-12T03:16:01;3.10;;;2.80;;
39256;SDS011;24958;48.066;11.038;2022-07-12T03:18:27;2.67;;;2.47;;
39256;SDS011;24958;48.066;11.038;2022-07-12T03:20:52;3.00;;;2.80;;
39256;SDS011;24958;48.066;11.038;2022-07-12T03:23:18;2.63;;;2.43;;
39256;SDS011;24958;48.066;11.038;2022-07-12T03:25:44;3.63;;;3.33;;
39256;SDS011;24958;48.066;11.038;2022-07-12T03:28:10;4.07;;;3.73;;
39256;SDS011;24958;48.066;11.038;2022-07-12T03:30:36;3.53;;;3.23;;
39256;SDS011;24958;48.066;11.038;2022-07-12T03:33:02;3.83;;;3.53;;
39256;SDS011;24958;48.066;11.038;2022-07-12T03:35:28;3.40;;;3.10;;
39256;SDS011;24958;48.066;11.038;2022-07-12T03:37:54;3.53;;;3.23;;
39256;SDS011;24958;48.066;11.038;2022-07-12T03:40:20;3.50;;;3.20;;
39256;SDS011;24958;48.066;11.038;2022-07-12T03:42:47;3.40;;;3.10;;
39256;SDS011;24958;48.066;11.038;2022-07-12T03:45:14;3.40;;;3.10;;
39256;SDS011;24958;48.066;11.038;2022-07-12T03:47:40;3.10;;;2.80;;
39256;SDS011;24958;48.066;11.038;2022-07-12T03:50:07;3.00;;;2.80;;
39256;SDS011;24958;48.066;11.038;2022-07-12T03:52:35;2.90;;;2.60;;
39256;SDS011;24958;48.066;11.038;2022-07-12T03:55:01;3.23;;;2.80;;
39256;SDS011;24958;48.066;11.038;2022-07-12T03:57:28;2.97;;;2.77;;
39256;SDS011;24958;48.066;11.038;2022-07-12T03:59:54;2.90;;;2.70;;
39256;SDS011;24958;48.066;11.038;2022-07-12T04:02:20;3.03;;;2.83;;
39256;SDS011;24958;48.066;11.038;2022-07-12T04:04:46;3.00;;;2.80;;
39256;SDS011;24958;48.066;11.038;2022-07-12T04:07:12;2.60;;;2.40;;
39256;SDS011;24958;48.066;11.038;2022-07-12T04:09:38;3.03;;;2.70;;
39256;SDS011;24958;48.066;11.038;2022-07-12T04:12:04;3.00;;;2.70;;
39256;SDS011;24958;48.066;11.038;2022-07-12T04:14:30;3.00;;;2.80;;
39256;SDS011;24958;48.066;11.038;2022-07-12T04:16:57;3.20;;;3.00;;
39256;SDS011;24958;48.066;11.038;2022-07-12T04:19:23;3.80;;;3.50;;
39256;SDS011;24958;48.066;11.038;2022-07-12T04:21:52;3.60;;;3.30;;
39256;SDS011;24958;48.066;11.038;2022-07-12T04:24:18;3.87;;;3.20;;
39256;SDS011;24958;48.066;11.038;2022-07-12T04:26:44;3.00;;;2.80;;
39256;SDS011;24958;48.066;11.038;2022-07-12T04:29:10;2.93;;;2.73;;
39256;SDS011;24958;48.066;11.038;2022-07-12T04:31:36;3.33;;;3.07;;
39256;SDS011;24958;48.066;11.038;2022-07-12T04:34:02;3.70;;;3.40;;
39256;SDS011;24958;48.066;11.038;2022-07-12T04:36:28;3.93;;;3.43;;
39256;SDS011;24958;48.066;11.038;2022-07-12T04:38:54;4.20;;;3.80;;
39256;SDS011;24958;48.066;11.038;2022-07-12T04:41:20;3.83;;;3.53;;
39256;SDS011;24958;48.066;11.038;2022-07-12T04:43:46;4.03;;;3.73;;
39256;SDS011;24958;48.066;11.038;2022-07-12T04:46:12;4.07;;;3.77;;
39256;SDS011;24958;48.066;11.038;2022-07-12T04:48:38;4.93;;;4.43;;
39256;SDS011;24958;48.066;11.038;2022-07-12T04:51:04;4.57;;;4.17;;
39256;SDS011;24958;48.066;11.038;2022-07-12T04:53:30;6.07;;;5.30;;
39256;SDS011;24958;48.066;11.038;2022-07-12T04:55:56;4.63;;;4.23;;
39256;SDS011;24958;48.066;11.038;2022-07-12T04:58:22;4.97;;;4.07;;
39256;SDS011;24958;48.066;11.038;2022-07-12T05:00:49;4.43;;;4.03;;
39256;SDS011;24958;48.066;11.038;2022-07-12T05:03:15;4.93;;;4.43;;
39256;SDS011;24958;48.066;11.038;2022-07-12T05:05:42;4.80;;;4.40;;
39256;SDS011;24958;48.066;11.038;2022-07-12T05:08:08;4.35;;;4.03;;
39256;SDS011;24958;48.066;11.038;2022-07-12T05:10:35;4.60;;;4.20;;
39256;SDS011;24958;48.066;11.038;2022-07-12T05:13:01;5.13;;;4.72;;
39256;SDS011;24958;48.066;11.038;2022-07-12T05:15:27;5.38;;;4.90;;
39256;SDS011;24958;48.066;11.038;2022-07-12T05:17:53;5.80;;;5.03;;
39256;SDS011;24958;48.066;11.038;2022-07-12T05:20:19;5.18;;;4.75;;
39256;SDS011;24958;48.066;11.038;2022-07-12T05:22:45;5.63;;;5.22;;
39256;SDS011;24958;48.066;11.038;2022-07-12T05:25:11;5.93;;;5.43;;
39256;SDS011;24958;48.066;11.038;2022-07-12T05:27:37;5.43;;;5.03;;
39256;SDS011;24958;48.066;11.038;2022-07-12T05:30:03;5.60;;;5.10;;
39256;SDS011;24958;48.066;11.038;2022-07-12T05:32:29;6.38;;;5.80;;
39256;SDS011;24958;48.066;11.038;2022-07-12T05:34:55;5.82;;;5.32;;
39256;SDS011;24958;48.066;11.038;2022-07-12T05:37:21;5.93;;;5.32;;
39256;SDS011;24958;48.066;11.038;2022-07-12T05:39:51;6.05;;;5.20;;
39256;SDS011;24958;48.066;11.038;2022-07-12T05:42:17;5.93;;;5.10;;
39256;SDS011;24958;48.066;11.038;2022-07-12T05:44:43;6.13;;;5.53;;
39256;SDS011;24958;48.066;11.038;2022-07-12T05:47:09;5.85;;;5.32;;
39256;SDS011;24958;48.066;11.038;2022-07-12T05:49:35;5.10;;;4.68;;
39256;SDS011;24958;48.066;11.038;2022-07-12T05:52:01;5.32;;;4.70;;
39256;SDS011;24958;48.066;11.038;2022-07-12T05:54:46;4.90;;;4.50;;
39256;SDS011;24958;48.066;11.038;2022-07-12T05:57:13;5.05;;;4.65;;
39256;SDS011;24958;48.066;11.038;2022-07-12T05:59:39;5.28;;;4.47;;
39256;SDS011;24958;48.066;11.038;2022-07-12T06:02:05;5.00;;;4.60;;
39256;SDS011;24958;48.066;11.038;2022-07-12T06:04:31;4.53;;;4.13;;
39256;SDS011;24958;48.066;11.038;2022-07-12T06:06:57;5.15;;;4.20;;
39256;SDS011;24958;48.066;11.038;2022-07-12T06:09:23;4.30;;;4.00;;
39256;SDS011;24958;48.066;11.038;2022-07-12T06:11:49;4.38;;;3.90;;
39256;SDS011;24958;48.066;11.038;2022-07-12T06:14:15;4.13;;;3.67;;
39256;SDS011;24958;48.066;11.038;2022-07-12T06:16:41;3.80;;;3.50;;
39256;SDS011;24958;48.066;11.038;2022-07-12T06:19:07;3.42;;;3.13;;
39256;SDS011;24958;48.066;11.038;2022-07-12T06:21:33;3.85;;;3.45;;
39256;SDS011;24958;48.066;11.038;2022-07-12T06:23:59;3.40;;;3.10;;
39256;SDS011;24958;48.066;11.038;2022-07-12T06:26:25;3.40;;;3.10;;
39256;SDS011;24958;48.066;11.038;2022-07-12T06:28:52;3.05;;;2.75;;
39256;SDS011;24958;48.066;11.038;2022-07-12T06:31:18;3.33;;;3.03;;
39256;SDS011;24958;48.066;11.038;2022-07-12T06:33:44;2.58;;;2.28;;
39256;SDS011;24958;48.066;11.038;2022-07-12T06:36:10;2.72;;;2.13;;
39256;SDS011;24958;48.066;11.038;2022-07-12T06:38:36;2.40;;;2.25;;
39256;SDS011;24958;48.066;11.038;2022-07-12T06:41:02;2.42;;;2.28;;
39256;SDS011;24958;48.066;11.038;2022-07-12T06:43:28;3.17;;;2.55;;
39256;SDS011;24958;48.066;11.038;2022-07-12T06:45:54;2.30;;;2.20;;
39256;SDS011;24958;48.066;11.038;2022-07-12T06:48:20;2.75;;;2.55;;
39256;SDS011;24958;48.066;11.038;2022-07-12T06:50:46;3.22;;;2.17;;
39256;SDS011;24958;48.066;11.038;2022-07-12T06:53:12;3.22;;;2.50;;
39256;SDS011;24958;48.066;11.038;2022-07-12T06:55:38;2.45;;;2.25;;
39256;SDS011;24958;48.066;11.038;2022-07-12T06:58:04;2.50;;;2.30;;
39256;SDS011;24958;48.066;11.038;2022-07-12T07:00:30;2.05;;;1.95;;
39256;SDS011;24958;48.066;11.038;2022-07-12T07:02:56;2.22;;;2.13;;
39256;SDS011;24958;48.066;11.038;2022-07-12T07:05:22;2.47;;;2.28;;
39256;SDS011;24958;48.066;11.038;2022-07-12T07:07:48;2.20;;;2.10;;
39256;SDS011;24958;48.066;11.038;2022-07-12T07:10:14;2.05;;;1.88;;
39256;SDS011;24958;48.066;11.038;2022-07-12T07:12:40;2.05;;;1.95;;
39256;SDS011;24958;48.066;11.038;2022-07-12T07:15:07;3.00;;;2.50;;
39256;SDS011;24958;48.066;11.038;2022-07-12T07:17:33;3.15;;;2.85;;
39256;SDS011;24958;48.066;11.038;2022-07-12T07:19:59;2.78;;;2.33;;
39256;SDS011;24958;48.066;11.038;2022-07-12T07:22:25;2.50;;;2.30;;
39256;SDS011;24958;48.066;11.038;2022-07-12T07:24:52;3.33;;;3.00;;
39256;SDS011;24958;48.066;11.038;2022-07-12T07:27:18;3.00;;;2.80;;
39256;SDS011;24958;48.066;11.038;2022-07-12T07:29:44;2.83;;;2.63;;
39256;SDS011;24958;48.066;11.038;2022-07-12T07:32:28;2.30;;;2.20;;
39256;SDS011;24958;48.066;11.038;2022-07-12T07:34:54;3.08;;;2.60;;
39256;SDS011;24958;48.066;11.038;2022-07-12T07:37:20;3.20;;;2.90;;
39256;SDS011;24958;48.066;11.038;2022-07-12T07:39:48;2.55;;;2.35;;
39256;SDS011;24958;48.066;11.038;2022-07-12T07:42:14;2.30;;;2.10;;
39256;SDS011;24958;48.066;11.038;2022-07-12T07:44:40;2.60;;;2.40;;
39256;SDS011;24958;48.066;11.038;2022-07-12T07:47:06;2.63;;;2.42;;
39256;SDS011;24958;48.066;11.038;2022-07-12T07:49:32;2.35;;;2.25;;
39256;SDS011;24958;48.066;11.038;2022-07-12T07:51:58;3.00;;;2.80;;
39256;SDS011;24958;48.066;11.038;2022-07-12T07:54:24;2.55;;;2.35;;
39256;SDS011;24958;48.066;11.038;2022-07-12T07:56:50;2.58;;;2.25;;
39256;SDS011;24958;48.066;11.038;2022-07-12T07:59:16;2.13;;;1.90;;
39256;SDS011;24958;48.066;11.038;2022-07-12T08:01:42;2.10;;;2.00;;
39256;SDS011;24958;48.066;11.038;2022-07-12T08:04:13;2.35;;;2.10;;
39256;SDS011;24958;48.066;11.038;2022-07-12T08:06:39;2.13;;;2.03;;
39256;SDS011;24958;48.066;11.038;2022-07-12T08:09:05;4.00;;;2.10;;
39256;SDS011;24958;48.066;11.038;2022-07-12T08:11:32;2.63;;;2.42;;
39256;SDS011;24958;48.066;11.038;2022-07-12T08:13:58;2.67;;;2.28;;
39256;SDS011;24958;48.066;11.038;2022-07-12T08:16:24;2.30;;;2.10;;
39256;SDS011;24958;48.066;11.038;2022-07-12T08:18:51;2.65;;;2.13;;
39256;SDS011;24958;48.066;11.038;2022-07-12T08:21:16;2.25;;;1.90;;
39256;SDS011;24958;48.066;11.038;2022-07-12T08:23:42;2.17;;;1.77;;
39256;SDS011;24958;48.066;11.038;2022-07-12T08:26:08;2.47;;;2.00;;
39256;SDS011;24958;48.066;11.038;2022-07-12T08:28:34;1.63;;;1.52;;
39256;SDS011;24958;48.066;11.038;2022-07-12T08:31:00;2.30;;;2.17;;
39256;SDS011;24958;48.066;11.038;2022-07-12T08:33:26;1.88;;;1.67;;
39256;SDS011;24958;48.066;11.038;2022-07-12T08:35:52;2.22;;;2.03;;
39256;SDS011;24958;48.066;11.038;2022-07-12T08:38:18;1.88;;;1.77;;
39256;SDS011;24958;48.066;11.038;2022-07-12T08:40:45;2.00;;;1.70;;
39256;SDS011;24958;48.066;11.038;2022-07-12T08:43:11;2.20;;;1.98;;
39256;SDS011;24958;48.066;11.038;2022-07-12T08:45:37;1.80;;;1.70;;
39256;SDS011;24958;48.066;11.038;2022-07-12T08:48:05;2.38;;;1.98;;
39256;SDS011;24958;48.066;11.038;2022-07-12T08:50:32;2.83;;;2.10;;
39256;SDS011;24958;48.066;11.038;2022-07-12T08:52:58;1.85;;;1.70;;
39256;SDS011;24958;48.066;11.038;2022-07-12T08:55:28;1.90;;;1.73;;
39256;SDS011;24958;48.066;11.038;2022-07-12T08:57:55;2.08;;;1.83;;
39256;SDS011;24958;48.066;11.038;2022-07-12T09:00:22;2.17;;;1.98;;
39256;SDS011;24958;48.066;11.038;2022-07-12T09:02:52;1.90;;;1.80;;
39256;SDS011;24958;48.066;11.038;2022-07-12T09:05:19;2.10;;;1.92;;
39256;SDS011;24958;48.066;11.038;2022-07-12T09:07:45;2.47;;;1.90;;
39256;SDS011;24958;48.066;11.038;2022-07-12T09:10:12;2.10;;;1.90;;
39256;SDS011;24958;48.066;11.038;2022-07-12T09:12:38;3.08;;;2.17;;
39256;SDS011;24958;48.066;11.038;2022-07-12T09:15:15;2.13;;;1.98;;
39256;SDS011;24958;48.066;11.038;2022-07-12T09:17:54;2.08;;;1.80;;
39256;SDS011;24958;48.066;11.038;2022-07-12T09:20:34;2.33;;;2.13;;
39256;SDS011;24958;48.066;11.038;2022-07-12T09:23:03;2.58;;;1.90;;
39256;SDS011;24958;48.066;11.038;2022-07-12T09:25:29;1.92;;;1.83;;
39256;SDS011;24958;48.066;11.038;2022-07-12T09:27:57;3.75;;;1.98;;
39256;SDS011;24958;48.066;11.038;2022-07-12T09:30:27;1.80;;;1.70;;
39256;SDS011;24958;48.066;11.038;2022-07-12T09:35:39;1.80;;;1.70;;
39256;SDS011;24958;48.066;11.038;2022-07-12T09:38:24;2.08;;;1.98;;
39256;SDS011;24958;48.066;11.038;2022-07-12T09:40:50;2.28;;;2.08;;
39256;SDS011;24958;48.066;11.038;2022-07-12T09:43:16;3.90;;;1.95;;
39256;SDS011;24958;48.066;11.038;2022-07-12T09:45:43;2.05;;;1.85;;
39256;SDS011;24958;48.066;11.038;2022-07-12T09:48:10;2.65;;;1.98;;
39256;SDS011;24958;48.066;11.038;2022-07-12T09:50:39;2.83;;;2.30;;
39256;SDS011;24958;48.066;11.038;2022-07-12T09:53:06;1.90;;;1.80;;
39256;SDS011;24958;48.066;11.038;2022-07-12T09:55:35;2.53;;;2.22;;
39256;SDS011;24958;48.066;11.038;2022-07-12T09:58:03;2.05;;;1.80;;
39256;SDS011;24958;48.066;11.038;2022-07-12T10:00:30;3.13;;;2.40;;
39256;SDS011;24958;48.066;11.038;2022-07-12T10:02:57;1.95;;;1.85;;
39256;SDS011;24958;48.066;11.038;2022-07-12T10:05:24;2.20;;;2.00;;
39256;SDS011;24958;48.066;11.038;2022-07-12T10:07:50;1.70;;;1.60;;
39256;SDS011;24958;48.066;11.038;2022-07-12T10:10:16;2.40;;;2.20;;
39256;SDS011;24958;48.066;11.038;2022-07-12T10:12:43;2.10;;;1.83;;
39256;SDS011;24958;48.066;11.038;2022-07-12T10:15:10;2.22;;;1.92;;
39256;SDS011;24958;48.066;11.038;2022-07-12T10:17:39;2.65;;;2.03;;
39256;SDS011;24958;48.066;11.038;2022-07-12T10:20:15;2.28;;;2.08;;
39256;SDS011;24958;48.066;11.038;2022-07-12T10:22:42;3.03;;;2.50;;
39256;SDS011;24958;48.066;11.038;2022-07-12T10:25:27;3.13;;;2.30;;
39256;SDS011;24958;48.066;11.038;2022-07-12T10:27:54;2.42;;;1.85;;
39256;SDS011;24958;48.066;11.038;2022-07-12T10:30:21;1.98;;;1.88;;
39256;SDS011;24958;48.066;11.038;2022-07-12T10:32:48;2.20;;;2.10;;
39256;SDS011;24958;48.066;11.038;2022-07-12T10:35:18;1.88;;;1.77;;
39256;SDS011;24958;48.066;11.038;2022-07-12T10:40:33;1.92;;;1.73;;
39256;SDS011;24958;48.066;11.038;2022-07-12T10:45:38;2.55;;;2.22;;
39256;SDS011;24958;48.066;11.038;2022-07-12T10:51:11;1.75;;;1.65;;
39256;SDS011;24958;48.066;11.038;2022-07-12T10:53:36;4.82;;;2.13;;
39256;SDS011;24958;48.066;11.038;2022-07-12T10:56:17;1.90;;;1.80;;
39256;SDS011;24958;48.066;11.038;2022-07-12T10:58:46;3.42;;;1.90;;
39256;SDS011;24958;48.066;11.038;2022-07-12T11:01:28;2.10;;;1.90;;
39256;SDS011;24958;48.066;11.038;2022-07-12T11:03:56;2.67;;;1.70;;
39256;SDS011;24958;48.066;11.038;2022-07-12T11:06:23;1.55;;;1.40;;
39256;SDS011;24958;48.066;11.038;2022-07-12T11:08:59;3.03;;;1.70;;
39256;SDS011;24958;48.066;11.038;2022-07-12T11:11:59;1.75;;;1.65;;
39256;SDS011;24958;48.066;11.038;2022-07-12T11:14:22;1.77;;;1.67;;
39256;SDS011;24958;48.066;11.038;2022-07-12T11:16:48;2.75;;;1.60;;
39256;SDS011;24958;48.066;11.038;2022-07-12T11:19:20;2.33;;;1.67;;
39256;SDS011;24958;48.066;11.038;2022-07-12T11:21:46;1.70;;;1.60;;
39256;SDS011;24958;48.066;11.038;2022-07-12T11:24:16;1.73;;;1.63;;
39256;SDS011;24958;48.066;11.038;2022-07-12T11:26:43;2.00;;;1.63;;
39256;SDS011;24958;48.066;11.038;2022-07-12T11:29:09;1.95;;;1.80;;
39256;SDS011;24958;48.066;11.038;2022-07-12T11:31:35;1.83;;;1.70;;
39256;SDS011;24958;48.066;11.038;2022-07-12T11:34:01;1.70;;;1.60;;
39256;SDS011;24958;48.066;11.038;2022-07-12T11:36:27;1.58;;;1.48;;
39256;SDS011;24958;48.066;11.038;2022-07-12T11:38:54;1.60;;;1.50;;
39256;SDS011;24958;48.066;11.038;2022-07-12T11:41:20;1.95;;;1.52;;
39256;SDS011;24958;48.066;11.038;2022-07-12T11:43:47;1.98;;;1.70;;
39256;SDS011;24958;48.066;11.038;2022-07-12T11:46:13;1.70;;;1.60;;
39256;SDS011;24958;48.066;11.038;2022-07-12T11:48:41;1.60;;;1.50;;
39256;SDS011;24958;48.066;11.038;2022-07-12T11:51:08;1.90;;;1.42;;
39256;SDS011;24958;48.066;11.038;2022-07-12T11:53:35;1.70;;;1.50;;
39256;SDS011;24958;48.066;11.038;2022-07-12T11:56:02;1.73;;;1.50;;
39256;SDS011;24958;48.066;11.038;2022-07-12T11:58:28;1.58;;;1.48;;
39256;SDS011;24958;48.066;11.038;2022-07-12T12:00:55;1.60;;;1.50;;
39256;SDS011;24958;48.066;11.038;2022-07-12T12:03:21;1.65;;;1.55;;
39256;SDS011;24958;48.066;11.038;2022-07-12T12:05:48;1.63;;;1.52;;
39256;SDS011;24958;48.066;11.038;2022-07-12T12:08:14;2.15;;;1.67;;
39256;SDS011;24958;48.066;11.038;2022-07-12T12:10:41;1.70;;;1.60;;
39256;SDS011;24958;48.066;11.038;2022-07-12T12:13:14;1.60;;;1.50;;
39256;SDS011;24958;48.066;11.038;2022-07-12T12:15:41;1.40;;;1.30;;
39256;SDS011;24958;48.066;11.038;2022-07-12T12:18:07;1.80;;;1.30;;
39256;SDS011;24958;48.066;11.038;2022-07-12T12:20:35;1.38;;;1.27;;
39256;SDS011;24958;48.066;11.038;2022-07-12T12:23:02;1.50;;;1.40;;
39256;SDS011;24958;48.066;11.038;2022-07-12T12:25:29;1.90;;;1.40;;
39256;SDS011;24958;48.066;11.038;2022-07-12T12:27:56;1.90;;;1.58;;
39256;SDS011;24958;48.066;11.038;2022-07-12T12:30:23;1.25;;;1.20;;
39256;SDS011;24958;48.066;11.038;2022-07-12T12:32:50;3.10;;;1.55;;
39256;SDS011;24958;48.066;11.038;2022-07-12T12:35:24;1.50;;;1.40;;
39256;SDS011;24958;48.066;11.038;2022-07-12T12:37:56;1.48;;;1.27;;
39256;SDS011;24958;48.066;11.038;2022-07-12T12:40:23;1.38;;;1.27;;
39256;SDS011;24958;48.066;11.038;2022-07-12T12:42:49;1.50;;;1.40;;
39256;SDS011;24958;48.066;11.038;2022-07-12T12:45:23;2.08;;;1.60;;
39256;SDS011;24958;48.066;11.038;2022-07-12T12:47:57;1.50;;;1.40;;
39256;SDS011;24958;48.066;11.038;2022-07-12T12:53:09;1.55;;;1.33;;
39256;SDS011;24958;48.066;11.038;2022-07-12T12:55:36;1.33;;;1.20;;
39256;SDS011;24958;48.066;11.038;2022-07-12T12:58:02;1.50;;;1.40;;
39256;SDS011;24958;48.066;11.038;2022-07-12T13:00:29;1.23;;;1.20;;
39256;SDS011;24958;48.066;11.038;2022-07-12T13:02:55;1.30;;;1.20;;
39256;SDS011;24958;48.066;11.038;2022-07-12T13:05:24;1.10;;;1.00;;
39256;SDS011;24958;48.066;11.038;2022-07-12T13:07:50;1.10;;;1.10;;
39256;SDS011;24958;48.066;11.038;2022-07-12T13:10:16;1.40;;;1.20;;
39256;SDS011;24958;48.066;11.038;2022-07-12T13:12:42;1.58;;;1.40;;
39256;SDS011;24958;48.066;11.038;2022-07-12T13:15:09;1.13;;;1.08;;
39256;SDS011;24958;48.066;11.038;2022-07-12T13:17:36;1.23;;;1.13;;
39256;SDS011;24958;48.066;11.038;2022-07-12T13:20:03;1.40;;;1.30;;
39256;SDS011;24958;48.066;11.038;2022-07-12T13:22:29;1.77;;;1.40;;
39256;SDS011;24958;48.066;11.038;2022-07-12T13:24:55;1.33;;;1.20;;
39256;SDS011;24958;48.066;11.038;2022-07-12T13:27:21;1.42;;;1.13;;
39256;SDS011;24958;48.066;11.038;2022-07-12T13:29:47;1.38;;;1.27;;
39256;SDS011;24958;48.066;11.038;2022-07-12T13:32:13;1.10;;;1.00;;
39256;SDS011;24958;48.066;11.038;2022-07-12T13:34:39;1.50;;;1.40;;
39256;SDS011;24958;48.066;11.038;2022-07-12T13:37:05;1.45;;;1.23;;
39256;SDS011;24958;48.066;11.038;2022-07-12T13:39:31;1.23;;;1.20;;
39256;SDS011;24958;48.066;11.038;2022-07-12T13:42:16;1.30;;;1.20;;
39256;SDS011;24958;48.066;11.038;2022-07-12T13:44:42;1.30;;;1.20;;
39256;SDS011;24958;48.066;11.038;2022-07-12T13:47:08;1.33;;;1.23;;
39256;SDS011;24958;48.066;11.038;2022-07-12T13:49:34;2.50;;;1.10;;
39256;SDS011;24958;48.066;11.038;2022-07-12T13:52:02;1.92;;;1.10;;
39256;SDS011;24958;48.066;11.038;2022-07-12T13:54:28;0.93;;;0.90;;
39256;SDS011;24958;48.066;11.038;2022-07-12T13:56:54;1.52;;;1.10;;
39256;SDS011;24958;48.066;11.038;2022-07-12T13:59:20;1.52;;;1.30;;
39256;SDS011;24958;48.066;11.038;2022-07-12T14:01:46;1.77;;;1.38;;
39256;SDS011;24958;48.066;11.038;2022-07-12T14:04:12;1.20;;;0.98;;
39256;SDS011;24958;48.066;11.038;2022-07-12T14:06:38;1.10;;;1.00;;
39256;SDS011;24958;48.066;11.038;2022-07-12T14:09:04;0.93;;;0.90;;
39256;SDS011;24958;48.066;11.038;2022-07-12T14:11:29;2.15;;;1.10;;
39256;SDS011;24958;48.066;11.038;2022-07-12T14:13:55;2.35;;;0.98;;
39256;SDS011;24958;48.066;11.038;2022-07-12T14:16:22;1.33;;;1.23;;
39256;SDS011;24958;48.066;11.038;2022-07-12T14:18:48;0.90;;;0.90;;
39256;SDS011;24958;48.066;11.038;2022-07-12T14:21:14;2.10;;;1.00;;
39256;SDS011;24958;48.066;11.038;2022-07-12T14:23:40;1.23;;;0.93;;
39256;SDS011;24958;48.066;11.038;2022-07-12T14:26:06;2.13;;;1.08;;
39256;SDS011;24958;48.066;11.038;2022-07-12T14:28:32;2.90;;;1.00;;
39256;SDS011;24958;48.066;11.038;2022-07-12T14:30:58;1.00;;;0.73;;
39256;SDS011;24958;48.066;11.038;2022-07-12T14:33:25;2.10;;;1.00;;
39256;SDS011;24958;48.066;11.038;2022-07-12T14:35:51;1.92;;;1.00;;
39256;SDS011;24958;48.066;11.038;2022-07-12T14:38:17;2.30;;;1.08;;
39256;SDS011;24958;48.066;11.038;2022-07-12T14:40:43;1.25;;;0.80;;
39256;SDS011;24958;48.066;11.038;2022-07-12T14:43:09;2.35;;;0.98;;
39256;SDS011;24958;48.066;11.038;2022-07-12T14:45:35;1.33;;;0.80;;